createdAt,value
2019-03-21T15:02:45.530Z,13.70
2019-03-21T15:05:16.862Z,13.60
2019-03-21T15:07:48.240Z,13.70
2019-03-21T15:10:18.738Z,13.70
2019-03-21T15:12:48.959Z,13.80
2019-03-21T15:15:19.685Z,13.90
2019-03-21T15:17:50.320Z,13.90
2019-03-21T15:20:21.326Z,13.90
2019-03-21T15:22:52.310Z,13.90
2019-03-21T15:25:23.357Z,13.90
2019-03-21T15:27:54.130Z,13.80
2019-03-21T15:30:24.715Z,13.80
2019-03-21T15:32:55.295Z,13.70
2019-03-21T15:35:26.713Z,13.70
2019-03-21T15:37:57.653Z,13.70
2019-03-21T15:40:28.622Z,13.70
2019-03-21T15:42:58.895Z,13.70
2019-03-21T15:45:29.946Z,13.70
2019-03-21T15:48:00.640Z,13.60
2019-03-21T15:50:37.752Z,13.60
2019-03-21T15:53:07.694Z,13.60
2019-03-21T15:55:38.524Z,13.50
2019-03-21T15:58:09.522Z,13.40
2019-03-21T16:00:41.504Z,13.30
2019-03-21T16:03:12.424Z,13.30
2019-03-21T16:05:43.594Z,13.30
2019-03-21T16:08:14.220Z,13.30
2019-03-21T16:10:45.582Z,13.20
2019-03-21T16:13:15.812Z,13.20
2019-03-21T16:15:46.423Z,13.20
2019-03-21T16:18:17.260Z,13.10
2019-03-21T16:20:48.533Z,13.10
2019-03-21T16:23:19.240Z,13.00
2019-03-21T16:25:50.391Z,12.90
2019-03-21T16:28:20.450Z,12.90
2019-03-21T16:30:51.137Z,12.80
2019-03-21T16:33:21.964Z,12.80
2019-03-21T16:35:52.219Z,12.70
2019-03-21T16:38:23.128Z,12.60
2019-03-21T16:40:54.060Z,12.50
2019-03-21T16:43:25.104Z,12.50
2019-03-21T16:45:56.262Z,12.40
2019-03-21T16:48:27.482Z,12.20
2019-03-21T16:50:58.393Z,12.00
2019-03-21T16:53:29.721Z,11.70
2019-03-21T16:55:59.985Z,11.50
2019-03-21T16:58:30.973Z,11.30
2019-03-21T17:01:02.393Z,11.10
2019-03-21T17:03:33.132Z,10.90
2019-03-21T17:06:03.352Z,10.70
2019-03-21T17:08:33.531Z,10.60
2019-03-21T17:11:04.222Z,10.30
2019-03-21T17:13:35.224Z,10.20
2019-03-21T17:16:05.904Z,10.10
2019-03-21T17:18:36.924Z,10.00
2019-03-21T17:21:09.566Z,9.70
2019-03-21T17:23:40.845Z,9.50
2019-03-21T17:26:10.970Z,9.30
2019-03-21T17:28:42.218Z,9.50
2019-03-21T17:31:12.535Z,9.50
2019-03-21T17:33:43.353Z,9.60
2019-03-21T17:36:14.018Z,9.60
2019-03-21T17:38:45.008Z,9.50
2019-03-21T17:41:16.416Z,9.50
2019-03-21T17:43:47.051Z,9.30
2019-03-21T17:46:17.250Z,9.30
2019-03-21T17:48:48.580Z,9.30
2019-03-21T17:51:19.544Z,9.40
2019-03-21T17:53:49.818Z,9.30
2019-03-21T17:56:20.401Z,9.30
2019-03-21T17:58:50.940Z,9.30
2019-03-21T18:01:21.864Z,9.20
2019-03-21T18:03:52.203Z,9.10
2019-03-21T18:06:23.211Z,9.10
2019-03-21T18:08:54.095Z,9.10
2019-03-21T18:11:25.540Z,9.10
2019-03-21T18:13:56.646Z,9.10
2019-03-21T18:16:26.882Z,9.10
2019-03-21T18:18:57.404Z,9.10
2019-03-21T18:21:28.027Z,9.30
2019-03-21T18:23:58.923Z,9.30
2019-03-21T18:26:30.433Z,9.30
2019-03-21T18:29:01.562Z,9.40
2019-03-21T18:31:32.207Z,9.40
2019-03-21T18:34:03.445Z,9.40
2019-03-21T18:36:33.682Z,9.40
2019-03-21T18:39:05.959Z,9.40
2019-03-21T18:41:36.915Z,9.30
2019-03-21T18:44:07.657Z,9.30
2019-03-21T18:46:38.654Z,9.30
2019-03-21T18:49:09.664Z,9.20
2019-03-21T18:51:40.350Z,9.20
2019-03-21T18:54:11.674Z,9.30
2019-03-21T18:56:42.692Z,9.30
2019-03-21T18:59:14.050Z,9.10
2019-03-21T19:01:44.586Z,9.20
2019-03-21T19:04:15.875Z,9.10
2019-03-21T19:06:47.217Z,9.10
2019-03-21T19:09:17.766Z,9.00
2019-03-21T19:11:48.891Z,9.10
2019-03-21T19:14:19.168Z,9.00
2019-03-21T19:16:49.395Z,9.10
2019-03-21T19:19:20.351Z,9.20
2019-03-21T19:21:51.689Z,9.10
2019-03-21T19:24:22.612Z,9.10
2019-03-21T19:26:53.198Z,9.20
2019-03-21T19:29:24.446Z,9.10
2019-03-21T19:31:55.823Z,9.00
2019-03-21T19:34:26.066Z,9.00
2019-03-21T19:36:56.997Z,8.90
2019-03-21T19:39:28.324Z,8.90
2019-03-21T19:41:59.410Z,8.70
2019-03-21T19:44:30.948Z,8.70
2019-03-21T19:47:01.681Z,8.70
2019-03-21T19:49:32.717Z,8.80
2019-03-21T19:52:05.503Z,8.80
2019-03-21T19:54:36.154Z,8.90
2019-03-21T19:57:07.143Z,8.90
2019-03-21T19:59:40.538Z,8.80
2019-03-21T20:02:10.314Z,8.80
2019-03-21T20:04:41.337Z,8.80
2019-03-21T20:07:12.378Z,8.80
2019-03-21T20:09:42.703Z,8.70
2019-03-21T20:12:13.309Z,8.50
2019-03-21T20:14:45.425Z,8.40
2019-03-21T20:17:16.372Z,8.30
2019-03-21T20:19:47.805Z,8.10
2019-03-21T20:22:17.673Z,8.00
2019-03-21T20:24:48.442Z,7.90
2019-03-21T20:27:19.346Z,7.60
2019-03-21T20:29:50.764Z,7.40
2019-03-21T20:32:21.176Z,7.20
2019-03-21T20:34:51.909Z,7.00
2019-03-21T20:37:22.926Z,6.90
2019-03-21T20:39:54.176Z,6.80
2019-03-21T20:42:24.898Z,6.70
2019-03-21T20:45:03.624Z,6.60
2019-03-21T20:47:35.145Z,6.60
2019-03-21T20:50:07.427Z,6.60
2019-03-21T20:52:38.622Z,6.60
2019-03-21T20:55:09.747Z,6.70
2019-03-21T20:57:40.335Z,6.90
